sensor_id;sensor_type;location;lat;lon;timestamp;P1;durP1;ratioP1;P2;durP2;ratioP2
14300;SDS011;7234;59.306;18.024;2024-02-28T00:02:02;2.88;;;2.55;;
14300;SDS011;7234;59.306;18.024;2024-02-28T00:04:29;3.38;;;2.97;;
14300;SDS011;7234;59.306;18.024;2024-02-28T00:06:56;3.80;;;3.05;;
14300;SDS011;7234;59.306;18.024;2024-02-28T00:09:25;2.78;;;2.50;;
14300;SDS011;7234;59.306;18.024;2024-02-28T00:11:52;3.90;;;2.90;;
14300;SDS011;7234;59.306;18.024;2024-02-28T00:14:19;3.28;;;2.58;;
14300;SDS011;7234;59.306;18.024;2024-02-28T00:16:46;3.40;;;2.53;;
14300;SDS011;7234;59.306;18.024;2024-02-28T00:19:14;3.05;;;2.63;;
14300;SDS011;7234;59.306;18.024;2024-02-28T00:21:42;3.33;;;2.88;;
14300;SDS011;7234;59.306;18.024;2024-02-28T00:24:09;3.08;;;2.70;;
14300;SDS011;7234;59.306;18.024;2024-02-28T00:26:39;2.97;;;2.67;;
14300;SDS011;7234;59.306;18.024;2024-02-28T00:29:07;2.88;;;2.50;;
14300;SDS011;7234;59.306;18.024;2024-02-28T00:31:34;2.75;;;2.38;;
14300;SDS011;7234;59.306;18.024;2024-02-28T00:34:02;2.50;;;2.10;;
14300;SDS011;7234;59.306;18.024;2024-02-28T00:36:29;3.05;;;2.47;;
14300;SDS011;7234;59.306;18.024;2024-02-28T00:38:56;3.20;;;2.70;;
14300;SDS011;7234;59.306;18.024;2024-02-28T00:41:26;3.10;;;2.33;;
14300;SDS011;7234;59.306;18.024;2024-02-28T00:43:54;2.80;;;2.50;;
14300;SDS011;7234;59.306;18.024;2024-02-28T00:46:21;2.55;;;2.35;;
14300;SDS011;7234;59.306;18.024;2024-02-28T00:48:51;3.05;;;2.47;;
14300;SDS011;7234;59.306;18.024;2024-02-28T00:51:18;2.85;;;2.45;;
14300;SDS011;7234;59.306;18.024;2024-02-28T00:53:45;2.72;;;2.20;;
14300;SDS011;7234;59.306;18.024;2024-02-28T00:56:12;2.35;;;2.08;;
14300;SDS011;7234;59.306;18.024;2024-02-28T00:58:39;2.95;;;2.38;;
14300;SDS011;7234;59.306;18.024;2024-02-28T01:01:07;2.67;;;2.47;;
14300;SDS011;7234;59.306;18.024;2024-02-28T01:03:34;2.53;;;2.30;;
14300;SDS011;7234;59.306;18.024;2024-02-28T01:06:01;2.90;;;2.30;;
14300;SDS011;7234;59.306;18.024;2024-02-28T01:08:29;2.42;;;2.22;;
14300;SDS011;7234;59.306;18.024;2024-02-28T01:10:56;3.78;;;2.30;;
14300;SDS011;7234;59.306;18.024;2024-02-28T01:13:24;2.22;;;2.00;;
14300;SDS011;7234;59.306;18.024;2024-02-28T01:15:51;2.30;;;2.03;;
14300;SDS011;7234;59.306;18.024;2024-02-28T01:18:20;2.42;;;2.10;;
14300;SDS011;7234;59.306;18.024;2024-02-28T01:20:52;2.33;;;1.92;;
14300;SDS011;7234;59.306;18.024;2024-02-28T01:23:19;2.55;;;2.35;;
14300;SDS011;7234;59.306;18.024;2024-02-28T01:25:47;2.08;;;1.88;;
14300;SDS011;7234;59.306;18.024;2024-02-28T01:28:14;2.53;;;2.22;;
14300;SDS011;7234;59.306;18.024;2024-02-28T01:30:41;2.83;;;2.08;;
14300;SDS011;7234;59.306;18.024;2024-02-28T01:33:08;3.20;;;2.00;;
14300;SDS011;7234;59.306;18.024;2024-02-28T01:35:36;2.30;;;2.00;;
14300;SDS011;7234;59.306;18.024;2024-02-28T01:38:03;2.45;;;2.20;;
14300;SDS011;7234;59.306;18.024;2024-02-28T01:40:30;2.33;;;2.03;;
14300;SDS011;7234;59.306;18.024;2024-02-28T01:43:02;2.38;;;2.15;;
14300;SDS011;7234;59.306;18.024;2024-02-28T01:45:29;2.55;;;2.28;;
14300;SDS011;7234;59.306;18.024;2024-02-28T01:47:56;2.88;;;2.42;;
14300;SDS011;7234;59.306;18.024;2024-02-28T01:50:23;2.65;;;2.30;;
14300;SDS011;7234;59.306;18.024;2024-02-28T01:52:52;2.47;;;2.13;;
14300;SDS011;7234;59.306;18.024;2024-02-28T01:55:19;2.55;;;2.33;;
14300;SDS011;7234;59.306;18.024;2024-02-28T01:57:46;2.90;;;2.30;;
14300;SDS011;7234;59.306;18.024;2024-02-28T02:00:14;2.65;;;2.33;;
14300;SDS011;7234;59.306;18.024;2024-02-28T02:02:43;2.47;;;2.28;;
14300;SDS011;7234;59.306;18.024;2024-02-28T02:05:11;2.22;;;2.03;;
14300;SDS011;7234;59.306;18.024;2024-02-28T02:07:41;2.63;;;2.22;;
14300;SDS011;7234;59.306;18.024;2024-02-28T02:10:09;3.30;;;2.53;;
14300;SDS011;7234;59.306;18.024;2024-02-28T02:12:39;2.38;;;2.15;;
14300;SDS011;7234;59.306;18.024;2024-02-28T02:15:07;3.08;;;2.40;;
14300;SDS011;7234;59.306;18.024;2024-02-28T02:17:34;2.50;;;2.30;;
14300;SDS011;7234;59.306;18.024;2024-02-28T02:20:01;2.78;;;2.40;;
14300;SDS011;7234;59.306;18.024;2024-02-28T02:22:32;2.53;;;2.28;;
14300;SDS011;7234;59.306;18.024;2024-02-28T02:25:02;2.70;;;2.50;;
14300;SDS011;7234;59.306;18.024;2024-02-28T02:27:29;2.88;;;2.53;;
14300;SDS011;7234;59.306;18.024;2024-02-28T02:29:56;2.47;;;2.28;;
14300;SDS011;7234;59.306;18.024;2024-02-28T02:32:23;2.13;;;1.80;;
14300;SDS011;7234;59.306;18.024;2024-02-28T02:34:50;2.85;;;2.20;;
14300;SDS011;7234;59.306;18.024;2024-02-28T02:37:17;2.25;;;1.85;;
14300;SDS011;7234;59.306;18.024;2024-02-28T02:39:48;2.30;;;2.10;;
14300;SDS011;7234;59.306;18.024;2024-02-28T02:42:15;2.28;;;2.08;;
14300;SDS011;7234;59.306;18.024;2024-02-28T02:44:41;3.38;;;2.20;;
14300;SDS011;7234;59.306;18.024;2024-02-28T02:47:09;2.20;;;2.00;;
14300;SDS011;7234;59.306;18.024;2024-02-28T02:49:36;2.33;;;2.13;;
14300;SDS011;7234;59.306;18.024;2024-02-28T02:52:03;2.08;;;1.80;;
14300;SDS011;7234;59.306;18.024;2024-02-28T02:54:30;3.78;;;2.00;;
14300;SDS011;7234;59.306;18.024;2024-02-28T02:56:59;2.08;;;1.88;;
14300;SDS011;7234;59.306;18.024;2024-02-28T02:59:26;2.63;;;1.67;;
14300;SDS011;7234;59.306;18.024;2024-02-28T03:01:52;2.83;;;2.05;;
14300;SDS011;7234;59.306;18.024;2024-02-28T03:04:19;1.90;;;1.73;;
14300;SDS011;7234;59.306;18.024;2024-02-28T03:06:46;2.65;;;1.88;;
14300;SDS011;7234;59.306;18.024;2024-02-28T03:09:14;1.60;;;1.50;;
14300;SDS011;7234;59.306;18.024;2024-02-28T03:11:40;2.20;;;2.00;;
14300;SDS011;7234;59.306;18.024;2024-02-28T03:14:09;1.88;;;1.70;;
14300;SDS011;7234;59.306;18.024;2024-02-28T03:16:40;2.08;;;1.88;;
14300;SDS011;7234;59.306;18.024;2024-02-28T03:19:08;1.70;;;1.60;;
14300;SDS011;7234;59.306;18.024;2024-02-28T03:21:35;2.45;;;1.90;;
14300;SDS011;7234;59.306;18.024;2024-02-28T03:24:03;2.05;;;1.85;;
14300;SDS011;7234;59.306;18.024;2024-02-28T03:26:30;2.03;;;1.83;;
14300;SDS011;7234;59.306;18.024;2024-02-28T03:28:57;1.67;;;1.58;;
14300;SDS011;7234;59.306;18.024;2024-02-28T03:31:25;1.98;;;1.77;;
14300;SDS011;7234;59.306;18.024;2024-02-28T03:33:53;1.98;;;1.77;;
14300;SDS011;7234;59.306;18.024;2024-02-28T03:36:20;1.80;;;1.60;;
14300;SDS011;7234;59.306;18.024;2024-02-28T03:38:47;2.20;;;1.60;;
14300;SDS011;7234;59.306;18.024;2024-02-28T03:41:14;1.63;;;1.50;;
14300;SDS011;7234;59.306;18.024;2024-02-28T03:43:41;1.50;;;1.35;;
14300;SDS011;7234;59.306;18.024;2024-02-28T03:46:08;1.85;;;1.70;;
14300;SDS011;7234;59.306;18.024;2024-02-28T03:48:37;1.63;;;1.52;;
14300;SDS011;7234;59.306;18.024;2024-02-28T03:51:04;2.70;;;2.08;;
14300;SDS011;7234;59.306;18.024;2024-02-28T03:53:31;1.60;;;1.50;;
14300;SDS011;7234;59.306;18.024;2024-02-28T03:55:58;1.40;;;1.30;;
14300;SDS011;7234;59.306;18.024;2024-02-28T03:58:25;1.85;;;1.67;;
14300;SDS011;7234;59.306;18.024;2024-02-28T04:00:52;1.95;;;1.70;;
14300;SDS011;7234;59.306;18.024;2024-02-28T04:03:19;2.45;;;1.60;;
14300;SDS011;7234;59.306;18.024;2024-02-28T04:05:48;1.90;;;1.60;;
14300;SDS011;7234;59.306;18.024;2024-02-28T04:08:15;1.95;;;1.50;;
14300;SDS011;7234;59.306;18.024;2024-02-28T04:10:42;2.50;;;1.58;;
14300;SDS011;7234;59.306;18.024;2024-02-28T04:13:09;1.40;;;1.30;;
14300;SDS011;7234;59.306;18.024;2024-02-28T04:15:36;1.65;;;1.55;;
14300;SDS011;7234;59.306;18.024;2024-02-28T04:18:03;1.90;;;1.80;;
14300;SDS011;7234;59.306;18.024;2024-02-28T04:20:31;2.63;;;1.80;;
14300;SDS011;7234;59.306;18.024;2024-02-28T04:22:59;2.40;;;1.75;;
14300;SDS011;7234;59.306;18.024;2024-02-28T04:25:26;1.80;;;1.60;;
14300;SDS011;7234;59.306;18.024;2024-02-28T04:27:53;1.60;;;1.50;;
14300;SDS011;7234;59.306;18.024;2024-02-28T04:30:22;1.92;;;1.70;;
14300;SDS011;7234;59.306;18.024;2024-02-28T04:32:49;1.93;;;1.77;;
14300;SDS011;7234;59.306;18.024;2024-02-28T04:35:16;3.23;;;1.80;;
14300;SDS011;7234;59.306;18.024;2024-02-28T04:37:43;2.00;;;1.80;;
14300;SDS011;7234;59.306;18.024;2024-02-28T04:40:12;1.70;;;1.60;;
14300;SDS011;7234;59.306;18.024;2024-02-28T04:42:41;2.00;;;1.80;;
14300;SDS011;7234;59.306;18.024;2024-02-28T04:45:08;2.47;;;2.10;;
14300;SDS011;7234;59.306;18.024;2024-02-28T04:47:36;2.05;;;1.70;;
14300;SDS011;7234;59.306;18.024;2024-02-28T04:50:03;2.72;;;2.00;;
14300;SDS011;7234;59.306;18.024;2024-02-28T04:52:32;1.63;;;1.45;;
14300;SDS011;7234;59.306;18.024;2024-02-28T04:54:59;2.30;;;2.00;;
14300;SDS011;7234;59.306;18.024;2024-02-28T04:57:27;2.15;;;1.88;;
14300;SDS011;7234;59.306;18.024;2024-02-28T04:59:54;2.75;;;1.65;;
14300;SDS011;7234;59.306;18.024;2024-02-28T05:02:21;1.92;;;1.80;;
14300;SDS011;7234;59.306;18.024;2024-02-28T05:04:50;1.75;;;1.63;;
14300;SDS011;7234;59.306;18.024;2024-02-28T05:07:17;2.30;;;2.10;;
14300;SDS011;7234;59.306;18.024;2024-02-28T05:09:44;1.85;;;1.70;;
14300;SDS011;7234;59.306;18.024;2024-02-28T05:12:13;2.97;;;1.77;;
14300;SDS011;7234;59.306;18.024;2024-02-28T05:14:41;2.63;;;2.00;;
14300;SDS011;7234;59.306;18.024;2024-02-28T05:17:08;2.38;;;1.70;;
14300;SDS011;7234;59.306;18.024;2024-02-28T05:19:35;2.07;;;1.83;;
14300;SDS011;7234;59.306;18.024;2024-02-28T05:22:02;2.45;;;2.03;;
14300;SDS011;7234;59.306;18.024;2024-02-28T05:24:30;2.50;;;2.08;;
14300;SDS011;7234;59.306;18.024;2024-02-28T05:26:57;2.00;;;1.70;;
14300;SDS011;7234;59.306;18.024;2024-02-28T05:29:24;2.05;;;1.85;;
14300;SDS011;7234;59.306;18.024;2024-02-28T05:31:53;2.10;;;1.90;;
14300;SDS011;7234;59.306;18.024;2024-02-28T05:34:20;2.35;;;1.92;;
14300;SDS011;7234;59.306;18.024;2024-02-28T05:36:47;2.00;;;1.80;;
14300;SDS011;7234;59.306;18.024;2024-02-28T05:39:15;1.98;;;1.77;;
14300;SDS011;7234;59.306;18.024;2024-02-28T05:41:42;2.10;;;1.88;;
14300;SDS011;7234;59.306;18.024;2024-02-28T05:44:09;2.03;;;1.80;;
14300;SDS011;7234;59.306;18.024;2024-02-28T05:46:36;7.55;;;2.22;;
14300;SDS011;7234;59.306;18.024;2024-02-28T05:49:05;1.90;;;1.70;;
14300;SDS011;7234;59.306;18.024;2024-02-28T05:51:32;2.03;;;1.70;;
14300;SDS011;7234;59.306;18.024;2024-02-28T05:54:01;2.00;;;1.80;;
14300;SDS011;7234;59.306;18.024;2024-02-28T05:56:28;2.13;;;1.80;;
14300;SDS011;7234;59.306;18.024;2024-02-28T05:58:55;3.17;;;1.80;;
14300;SDS011;7234;59.306;18.024;2024-02-28T06:01:22;2.05;;;1.70;;
14300;SDS011;7234;59.306;18.024;2024-02-28T06:03:51;2.58;;;1.80;;
14300;SDS011;7234;59.306;18.024;2024-02-28T06:06:20;2.20;;;2.00;;
14300;SDS011;7234;59.306;18.024;2024-02-28T06:08:47;2.80;;;2.05;;
14300;SDS011;7234;59.306;18.024;2024-02-28T06:11:14;2.00;;;1.80;;
14300;SDS011;7234;59.306;18.024;2024-02-28T06:13:41;4.03;;;1.92;;
14300;SDS011;7234;59.306;18.024;2024-02-28T06:16:15;2.05;;;1.80;;
14300;SDS011;7234;59.306;18.024;2024-02-28T06:18:43;2.00;;;1.90;;
14300;SDS011;7234;59.306;18.024;2024-02-28T06:21:10;2.42;;;2.00;;
14300;SDS011;7234;59.306;18.024;2024-02-28T06:23:44;2.20;;;2.00;;
14300;SDS011;7234;59.306;18.024;2024-02-28T06:26:11;2.70;;;2.05;;
14300;SDS011;7234;59.306;18.024;2024-02-28T06:28:42;2.33;;;1.90;;
14300;SDS011;7234;59.306;18.024;2024-02-28T06:31:14;1.88;;;1.77;;
14300;SDS011;7234;59.306;18.024;2024-02-28T06:33:41;2.53;;;1.80;;
14300;SDS011;7234;59.306;18.024;2024-02-28T06:36:08;2.53;;;1.98;;
14300;SDS011;7234;59.306;18.024;2024-02-28T06:38:35;3.05;;;2.17;;
14300;SDS011;7234;59.306;18.024;2024-02-28T06:41:04;3.17;;;2.05;;
14300;SDS011;7234;59.306;18.024;2024-02-28T06:43:33;4.80;;;2.00;;
14300;SDS011;7234;59.306;18.024;2024-02-28T06:46:00;2.25;;;2.05;;
14300;SDS011;7234;59.306;18.024;2024-02-28T06:48:27;2.20;;;2.00;;
14300;SDS011;7234;59.306;18.024;2024-02-28T06:50:55;4.75;;;2.15;;
14300;SDS011;7234;59.306;18.024;2024-02-28T06:53:22;5.10;;;2.40;;
14300;SDS011;7234;59.306;18.024;2024-02-28T06:55:52;3.60;;;2.25;;
14300;SDS011;7234;59.306;18.024;2024-02-28T06:58:21;2.22;;;2.00;;
14300;SDS011;7234;59.306;18.024;2024-02-28T07:00:50;3.55;;;2.20;;
14300;SDS011;7234;59.306;18.024;2024-02-28T07:03:17;2.30;;;1.88;;
14300;SDS011;7234;59.306;18.024;2024-02-28T07:05:44;2.50;;;1.90;;
14300;SDS011;7234;59.306;18.024;2024-02-28T07:08:11;3.60;;;1.90;;
14300;SDS011;7234;59.306;18.024;2024-02-28T07:10:39;2.70;;;1.90;;
14300;SDS011;7234;59.306;18.024;2024-02-28T07:13:08;2.30;;;1.90;;
14300;SDS011;7234;59.306;18.024;2024-02-28T07:15:37;3.50;;;2.23;;
14300;SDS011;7234;59.306;18.024;2024-02-28T07:18:05;3.60;;;1.98;;
14300;SDS011;7234;59.306;18.024;2024-02-28T07:20:32;2.25;;;2.00;;
14300;SDS011;7234;59.306;18.024;2024-02-28T07:22:59;2.90;;;2.20;;
14300;SDS011;7234;59.306;18.024;2024-02-28T07:25:26;3.88;;;1.80;;
14300;SDS011;7234;59.306;18.024;2024-02-28T07:27:56;2.85;;;2.10;;
14300;SDS011;7234;59.306;18.024;2024-02-28T07:30:24;2.53;;;2.10;;
14300;SDS011;7234;59.306;18.024;2024-02-28T07:32:52;4.67;;;1.93;;
14300;SDS011;7234;59.306;18.024;2024-02-28T07:35:20;4.13;;;2.00;;
14300;SDS011;7234;59.306;18.024;2024-02-28T07:37:48;3.83;;;1.90;;
14300;SDS011;7234;59.306;18.024;2024-02-28T07:40:15;2.30;;;1.73;;
14300;SDS011;7234;59.306;18.024;2024-02-28T07:42:43;2.10;;;1.73;;
14300;SDS011;7234;59.306;18.024;2024-02-28T07:45:10;2.03;;;1.70;;
14300;SDS011;7234;59.306;18.024;2024-02-28T07:47:37;2.13;;;1.70;;
14300;SDS011;7234;59.306;18.024;2024-02-28T07:50:08;5.03;;;2.00;;
14300;SDS011;7234;59.306;18.024;2024-02-28T07:52:35;2.27;;;1.93;;
14300;SDS011;7234;59.306;18.024;2024-02-28T07:55:02;2.27;;;1.60;;
14300;SDS011;7234;59.306;18.024;2024-02-28T07:57:31;3.57;;;1.90;;
14300;SDS011;7234;59.306;18.024;2024-02-28T07:59:59;3.03;;;1.73;;
14300;SDS011;7234;59.306;18.024;2024-02-28T08:02:29;3.47;;;1.70;;
14300;SDS011;7234;59.306;18.024;2024-02-28T08:04:56;2.70;;;1.60;;
14300;SDS011;7234;59.306;18.024;2024-02-28T08:07:24;3.03;;;1.67;;
14300;SDS011;7234;59.306;18.024;2024-02-28T08:09:51;3.07;;;1.80;;
14300;SDS011;7234;59.306;18.024;2024-02-28T08:12:20;2.47;;;1.77;;
14300;SDS011;7234;59.306;18.024;2024-02-28T08:14:47;2.93;;;1.90;;
14300;SDS011;7234;59.306;18.024;2024-02-28T08:17:17;3.37;;;1.80;;
14300;SDS011;7234;59.306;18.024;2024-02-28T08:19:44;3.33;;;1.50;;
14300;SDS011;7234;59.306;18.024;2024-02-28T08:22:14;5.07;;;1.53;;
14300;SDS011;7234;59.306;18.024;2024-02-28T08:24:42;2.23;;;1.77;;
14300;SDS011;7234;59.306;18.024;2024-02-28T08:27:09;2.15;;;1.63;;
14300;SDS011;7234;59.306;18.024;2024-02-28T08:29:39;2.90;;;1.85;;
14300;SDS011;7234;59.306;18.024;2024-02-28T08:32:09;4.37;;;2.20;;
14300;SDS011;7234;59.306;18.024;2024-02-28T08:34:37;3.08;;;1.48;;
14300;SDS011;7234;59.306;18.024;2024-02-28T08:37:04;3.60;;;2.00;;
14300;SDS011;7234;59.306;18.024;2024-02-28T08:39:31;4.70;;;1.90;;
14300;SDS011;7234;59.306;18.024;2024-02-28T08:41:59;2.87;;;1.77;;
14300;SDS011;7234;59.306;18.024;2024-02-28T08:44:26;3.87;;;2.00;;
14300;SDS011;7234;59.306;18.024;2024-02-28T08:46:53;3.77;;;2.00;;
14300;SDS011;7234;59.306;18.024;2024-02-28T08:49:20;2.20;;;1.60;;
14300;SDS011;7234;59.306;18.024;2024-02-28T08:51:48;3.40;;;1.80;;
14300;SDS011;7234;59.306;18.024;2024-02-28T08:54:15;3.73;;;1.80;;
14300;SDS011;7234;59.306;18.024;2024-02-28T08:56:42;2.73;;;1.60;;
14300;SDS011;7234;59.306;18.024;2024-02-28T08:59:16;2.80;;;1.50;;
14300;SDS011;7234;59.306;18.024;2024-02-28T09:01:43;1.80;;;1.50;;
14300;SDS011;7234;59.306;18.024;2024-02-28T09:04:10;3.53;;;1.50;;
14300;SDS011;7234;59.306;18.024;2024-02-28T09:06:37;2.17;;;1.50;;
14300;SDS011;7234;59.306;18.024;2024-02-28T09:09:04;2.97;;;1.50;;
14300;SDS011;7234;59.306;18.024;2024-02-28T09:11:31;2.73;;;1.67;;
14300;SDS011;7234;59.306;18.024;2024-02-28T09:13:58;4.03;;;1.67;;
14300;SDS011;7234;59.306;18.024;2024-02-28T09:16:27;3.73;;;1.90;;
14300;SDS011;7234;59.306;18.024;2024-02-28T09:18:54;5.53;;;2.00;;
14300;SDS011;7234;59.306;18.024;2024-02-28T09:21:21;5.10;;;1.90;;
14300;SDS011;7234;59.306;18.024;2024-02-28T09:23:48;5.10;;;1.87;;
14300;SDS011;7234;59.306;18.024;2024-02-28T09:26:15;2.72;;;1.73;;
14300;SDS011;7234;59.306;18.024;2024-02-28T09:28:42;2.47;;;1.70;;
14300;SDS011;7234;59.306;18.024;2024-02-28T09:31:10;2.15;;;1.73;;
14300;SDS011;7234;59.306;18.024;2024-02-28T09:33:38;2.45;;;1.75;;
14300;SDS011;7234;59.306;18.024;2024-02-28T09:36:05;2.08;;;1.50;;
14300;SDS011;7234;59.306;18.024;2024-02-28T09:38:33;3.63;;;1.65;;
14300;SDS011;7234;59.306;18.024;2024-02-28T09:41:00;3.50;;;1.70;;
14300;SDS011;7234;59.306;18.024;2024-02-28T09:43:28;4.70;;;1.80;;
14300;SDS011;7234;59.306;18.024;2024-02-28T09:45:57;5.63;;;2.30;;
14300;SDS011;7234;59.306;18.024;2024-02-28T09:48:27;4.23;;;1.60;;
14300;SDS011;7234;59.306;18.024;2024-02-28T09:50:56;3.13;;;1.67;;
14300;SDS011;7234;59.306;18.024;2024-02-28T09:53:24;2.10;;;1.70;;
14300;SDS011;7234;59.306;18.024;2024-02-28T09:55:51;2.33;;;1.40;;
14300;SDS011;7234;59.306;18.024;2024-02-28T09:58:19;3.20;;;1.73;;
14300;SDS011;7234;59.306;18.024;2024-02-28T10:00:46;4.97;;;2.17;;
14300;SDS011;7234;59.306;18.024;2024-02-28T10:03:18;2.67;;;1.77;;
14300;SDS011;7234;59.306;18.024;2024-02-28T10:05:45;4.17;;;1.80;;
14300;SDS011;7234;59.306;18.024;2024-02-28T10:08:17;3.93;;;1.60;;
14300;SDS011;7234;59.306;18.024;2024-02-28T10:10:44;6.73;;;1.80;;
14300;SDS011;7234;59.306;18.024;2024-02-28T10:13:12;3.87;;;1.63;;
14300;SDS011;7234;59.306;18.024;2024-02-28T10:15:41;2.90;;;1.43;;
14300;SDS011;7234;59.306;18.024;2024-02-28T10:18:09;2.43;;;2.10;;
14300;SDS011;7234;59.306;18.024;2024-02-28T10:20:36;2.77;;;1.93;;
14300;SDS011;7234;59.306;18.024;2024-02-28T10:23:03;2.50;;;1.90;;
14300;SDS011;7234;59.306;18.024;2024-02-28T10:25:41;3.47;;;2.17;;
14300;SDS011;7234;59.306;18.024;2024-02-28T10:28:08;4.67;;;2.17;;
14300;SDS011;7234;59.306;18.024;2024-02-28T10:30:38;4.13;;;1.70;;
14300;SDS011;7234;59.306;18.024;2024-02-28T10:33:09;2.73;;;2.03;;
14300;SDS011;7234;59.306;18.024;2024-02-28T10:35:37;6.30;;;2.30;;
14300;SDS011;7234;59.306;18.024;2024-02-28T10:38:05;4.67;;;2.30;;
14300;SDS011;7234;59.306;18.024;2024-02-28T10:40:32;8.13;;;2.17;;
14300;SDS011;7234;59.306;18.024;2024-02-28T10:43:01;3.67;;;2.17;;
14300;SDS011;7234;59.306;18.024;2024-02-28T10:45:30;5.90;;;2.57;;
14300;SDS011;7234;59.306;18.024;2024-02-28T10:47:58;5.10;;;2.00;;
14300;SDS011;7234;59.306;18.024;2024-02-28T10:50:29;3.43;;;1.80;;
14300;SDS011;7234;59.306;18.024;2024-02-28T10:52:56;5.28;;;2.40;;
14300;SDS011;7234;59.306;18.024;2024-02-28T10:55:27;7.40;;;1.92;;
14300;SDS011;7234;59.306;18.024;2024-02-28T10:58:01;2.15;;;1.65;;
14300;SDS011;7234;59.306;18.024;2024-02-28T11:00:32;2.80;;;1.80;;
14300;SDS011;7234;59.306;18.024;2024-02-28T11:03:01;2.47;;;1.80;;
14300;SDS011;7234;59.306;18.024;2024-02-28T11:05:36;3.97;;;1.90;;
14300;SDS011;7234;59.306;18.024;2024-02-28T11:08:05;4.57;;;2.00;;
14300;SDS011;7234;59.306;18.024;2024-02-28T11:10:34;3.93;;;1.90;;
14300;SDS011;7234;59.306;18.024;2024-02-28T11:13:05;4.73;;;2.43;;
14300;SDS011;7234;59.306;18.024;2024-02-28T11:15:33;4.07;;;2.00;;
14300;SDS011;7234;59.306;18.024;2024-02-28T11:18:06;5.47;;;2.30;;
14300;SDS011;7234;59.306;18.024;2024-02-28T11:20:34;4.47;;;2.03;;
14300;SDS011;7234;59.306;18.024;2024-02-28T11:23:01;3.78;;;1.85;;
14300;SDS011;7234;59.306;18.024;2024-02-28T11:25:28;4.30;;;1.75;;
14300;SDS011;7234;59.306;18.024;2024-02-28T11:27:55;7.00;;;2.28;;
14300;SDS011;7234;59.306;18.024;2024-02-28T11:30:24;2.35;;;1.40;;
14300;SDS011;7234;59.306;18.024;2024-02-28T11:32:51;7.63;;;1.75;;
14300;SDS011;7234;59.306;18.024;2024-02-28T11:35:19;5.25;;;2.20;;
14300;SDS011;7234;59.306;18.024;2024-02-28T11:37:49;5.32;;;2.60;;
14300;SDS011;7234;59.306;18.024;2024-02-28T11:40:18;6.75;;;2.65;;
14300;SDS011;7234;59.306;18.024;2024-02-28T11:42:46;5.90;;;2.00;;
14300;SDS011;7234;59.306;18.024;2024-02-28T11:45:13;2.22;;;1.83;;
14300;SDS011;7234;59.306;18.024;2024-02-28T11:47:41;4.50;;;1.90;;
14300;SDS011;7234;59.306;18.024;2024-02-28T11:50:08;5.27;;;2.30;;
14300;SDS011;7234;59.306;18.024;2024-02-28T11:52:36;2.20;;;2.00;;
14300;SDS011;7234;59.306;18.024;2024-02-28T11:55:03;4.83;;;2.33;;
14300;SDS011;7234;59.306;18.024;2024-02-28T11:57:31;3.30;;;2.53;;
14300;SDS011;7234;59.306;18.024;2024-02-28T12:00:01;4.23;;;1.83;;
14300;SDS011;7234;59.306;18.024;2024-02-28T12:02:30;4.97;;;2.57;;
14300;SDS011;7234;59.306;18.024;2024-02-28T12:05:01;3.37;;;2.10;;
14300;SDS011;7234;59.306;18.024;2024-02-28T12:07:29;5.73;;;2.10;;
14300;SDS011;7234;59.306;18.024;2024-02-28T12:09:56;4.83;;;2.40;;
14300;SDS011;7234;59.306;18.024;2024-02-28T12:12:23;3.23;;;2.03;;
14300;SDS011;7234;59.306;18.024;2024-02-28T12:14:51;4.13;;;2.10;;
14300;SDS011;7234;59.306;18.024;2024-02-28T12:17:18;9.00;;;2.10;;
14300;SDS011;7234;59.306;18.024;2024-02-28T12:19:45;6.50;;;2.40;;
14300;SDS011;7234;59.306;18.024;2024-02-28T12:22:13;3.50;;;2.00;;
14300;SDS011;7234;59.306;18.024;2024-02-28T12:24:40;5.07;;;2.40;;
14300;SDS011;7234;59.306;18.024;2024-02-28T12:27:08;4.67;;;2.17;;
14300;SDS011;7234;59.306;18.024;2024-02-28T12:29:35;3.23;;;1.70;;
14300;SDS011;7234;59.306;18.024;2024-02-28T12:32:02;2.40;;;2.00;;
14300;SDS011;7234;59.306;18.024;2024-02-28T12:34:29;2.20;;;1.70;;
14300;SDS011;7234;59.306;18.024;2024-02-28T12:36:56;3.87;;;2.00;;
14300;SDS011;7234;59.306;18.024;2024-02-28T12:39:26;3.70;;;2.17;;
14300;SDS011;7234;59.306;18.024;2024-02-28T12:41:53;5.20;;;2.47;;
14300;SDS011;7234;59.306;18.024;2024-02-28T12:44:20;6.73;;;2.30;;
14300;SDS011;7234;59.306;18.024;2024-02-28T12:46:47;4.53;;;2.50;;
14300;SDS011;7234;59.306;18.024;2024-02-28T12:49:14;6.38;;;2.55;;
14300;SDS011;7234;59.306;18.024;2024-02-28T12:51:42;6.45;;;2.15;;
14300;SDS011;7234;59.306;18.024;2024-02-28T12:54:10;5.25;;;2.63;;
14300;SDS011;7234;59.306;18.024;2024-02-28T12:56:42;6.82;;;2.58;;
14300;SDS011;7234;59.306;18.024;2024-02-28T12:59:09;4.28;;;2.20;;
14300;SDS011;7234;59.306;18.024;2024-02-28T13:01:36;3.65;;;2.30;;
14300;SDS011;7234;59.306;18.024;2024-02-28T13:04:07;5.60;;;2.50;;
14300;SDS011;7234;59.306;18.024;2024-02-28T13:06:34;3.28;;;2.38;;
14300;SDS011;7234;59.306;18.024;2024-02-28T13:09:01;8.15;;;2.88;;
14300;SDS011;7234;59.306;18.024;2024-02-28T13:11:28;3.97;;;2.22;;
14300;SDS011;7234;59.306;18.024;2024-02-28T13:13:57;6.53;;;2.63;;
14300;SDS011;7234;59.306;18.024;2024-02-28T13:16:24;4.68;;;2.45;;
14300;SDS011;7234;59.306;18.024;2024-02-28T13:18:51;5.32;;;2.38;;
14300;SDS011;7234;59.306;18.024;2024-02-28T13:21:18;4.72;;;2.90;;
14300;SDS011;7234;59.306;18.024;2024-02-28T13:23:45;5.65;;;2.35;;
14300;SDS011;7234;59.306;18.024;2024-02-28T13:26:12;6.33;;;2.57;;
14300;SDS011;7234;59.306;18.024;2024-02-28T13:28:43;10.35;;;2.85;;
14300;SDS011;7234;59.306;18.024;2024-02-28T13:31:13;5.35;;;2.40;;
14300;SDS011;7234;59.306;18.024;2024-02-28T13:33:40;3.63;;;2.00;;
14300;SDS011;7234;59.306;18.024;2024-02-28T13:36:07;8.48;;;2.63;;
14300;SDS011;7234;59.306;18.024;2024-02-28T13:38:34;4.88;;;2.33;;
14300;SDS011;7234;59.306;18.024;2024-02-28T13:41:02;4.45;;;2.13;;
14300;SDS011;7234;59.306;18.024;2024-02-28T13:43:29;4.60;;;2.10;;
14300;SDS011;7234;59.306;18.024;2024-02-28T13:45:56;2.95;;;2.00;;
14300;SDS011;7234;59.306;18.024;2024-02-28T13:48:26;6.50;;;2.43;;
14300;SDS011;7234;59.306;18.024;2024-02-28T13:50:55;7.47;;;2.57;;
14300;SDS011;7234;59.306;18.024;2024-02-28T13:53:22;4.38;;;2.38;;
14300;SDS011;7234;59.306;18.024;2024-02-28T13:55:52;6.47;;;2.08;;
14300;SDS011;7234;59.306;18.024;2024-02-28T13:58:21;4.80;;;2.17;;
14300;SDS011;7234;59.306;18.024;2024-02-28T14:00:48;5.20;;;2.08;;
14300;SDS011;7234;59.306;18.024;2024-02-28T14:03:18;4.68;;;1.90;;
14300;SDS011;7234;59.306;18.024;2024-02-28T14:05:47;3.10;;;1.65;;
14300;SDS011;7234;59.306;18.024;2024-02-28T14:08:14;4.53;;;1.88;;
14300;SDS011;7234;59.306;18.024;2024-02-28T14:10:42;2.45;;;2.05;;
14300;SDS011;7234;59.306;18.024;2024-02-28T14:13:09;6.88;;;2.22;;
14300;SDS011;7234;59.306;18.024;2024-02-28T14:15:37;3.10;;;1.88;;
14300;SDS011;7234;59.306;18.024;2024-02-28T14:18:04;5.05;;;1.88;;
14300;SDS011;7234;59.306;18.024;2024-02-28T14:20:31;3.47;;;1.48;;
14300;SDS011;7234;59.306;18.024;2024-02-28T14:23:00;4.20;;;1.83;;
14300;SDS011;7234;59.306;18.024;2024-02-28T14:25:28;5.05;;;1.65;;
14300;SDS011;7234;59.306;18.024;2024-02-28T14:27:55;3.25;;;1.80;;
14300;SDS011;7234;59.306;18.024;2024-02-28T14:30:22;3.08;;;1.58;;
14300;SDS011;7234;59.306;18.024;2024-02-28T14:32:52;2.92;;;1.55;;
14300;SDS011;7234;59.306;18.024;2024-02-28T14:35:20;3.13;;;1.40;;
14300;SDS011;7234;59.306;18.024;2024-02-28T14:37:47;6.65;;;1.63;;
14300;SDS011;7234;59.306;18.024;2024-02-28T14:40:16;4.68;;;1.52;;
14300;SDS011;7234;59.306;18.024;2024-02-28T14:42:43;2.22;;;1.30;;
14300;SDS011;7234;59.306;18.024;2024-02-28T14:45:11;4.50;;;1.52;;
14300;SDS011;7234;59.306;18.024;2024-02-28T14:47:39;2.78;;;1.48;;
14300;SDS011;7234;59.306;18.024;2024-02-28T14:50:07;5.97;;;1.70;;
14300;SDS011;7234;59.306;18.024;2024-02-28T14:52:35;2.20;;;1.57;;